EWG7NQ EDDL-LIPZ
Flight info
| Callsign | EWG7NQ |
|---|---|
| Flight time | 1h 18m |
| Altitude | 37000 |
| Route | DODEN7Z DODEN Y852 TUSUK DCT ULNOK L607 ABUKA DCT BATUB M738 NATAG DCT LORLO DCT UNTAD DCT ADOSA L612 ALBET |
| Aircraft | A320/M-SDE3FGHIRWY/LB1 |
Departure
| Time | 2026-05-06 15:29 |
|---|---|
| Airport | Düsseldorf Airport (EDDL) |
Arrival
| Time | 2026-05-06 16:47 |
|---|---|
| Airport | Venice Marco Polo Airport (LIPZ) |
| Time | Latitude | Longitude | Altitude | Speed | Heading |
|---|---|---|---|---|---|
| 2026-05-06 15:05 | 51.28516 | 6.77134 | 126 ft | 0 kts | 322° |
| 2026-05-06 15:05 | 51.28516 | 6.77133 | 126 ft | 0 kts | 322° |
| 2026-05-06 15:19 | 51.28507 | 6.77145 | 128 ft | 4 kts | 320° |
| 2026-05-06 15:20 | 51.28488 | 6.77175 | 127 ft | 4 kts | 301° |
| 2026-05-06 15:20 | 51.28480 | 6.77211 | 125 ft | 4 kts | 253° |
| 2026-05-06 15:20 | 51.28483 | 6.77224 | 127 ft | 1 kts | 233° |
| 2026-05-06 15:22 | 51.28461 | 6.77178 | 125 ft | 14 kts | 233° |
| 2026-05-06 15:23 | 51.28409 | 6.77067 | 127 ft | 11 kts | 233° |
| 2026-05-06 15:23 | 51.28373 | 6.76992 | 128 ft | 7 kts | 232° |
| 2026-05-06 15:23 | 51.28353 | 6.76942 | 125 ft | 6 kts | 245° |
| 2026-05-06 15:23 | 51.28365 | 6.76875 | 125 ft | 6 kts | 317° |
| 2026-05-06 15:24 | 51.28389 | 6.76842 | 127 ft | 3 kts | 320° |
| 2026-05-06 15:24 | 51.28405 | 6.76823 | 124 ft | 3 kts | 322° |
| 2026-05-06 15:24 | 51.28424 | 6.76799 | 123 ft | 8 kts | 322° |
| 2026-05-06 15:24 | 51.28450 | 6.76700 | 125 ft | 10 kts | 243° |
| 2026-05-06 15:25 | 51.28415 | 6.76621 | 121 ft | 7 kts | 233° |
| 2026-05-06 15:25 | 51.28391 | 6.76570 | 122 ft | 4 kts | 233° |
| 2026-05-06 15:25 | 51.28362 | 6.76508 | 120 ft | 13 kts | 233° |
| 2026-05-06 15:25 | 51.28281 | 6.76341 | 125 ft | 23 kts | 232° |
| 2026-05-06 15:26 | 51.28185 | 6.76135 | 126 ft | 22 kts | 234° |
| 2026-05-06 15:26 | 51.28104 | 6.75963 | 124 ft | 18 kts | 232° |
| 2026-05-06 15:26 | 51.28028 | 6.75807 | 127 ft | 17 kts | 232° |
| 2026-05-06 15:26 | 51.27961 | 6.75671 | 125 ft | 14 kts | 232° |
| 2026-05-06 15:27 | 51.27957 | 6.75558 | 128 ft | 6 kts | 313° |
| 2026-05-06 15:27 | 51.27994 | 6.75525 | 124 ft | 3 kts | 334° |
| 2026-05-06 15:27 | 51.28017 | 6.75508 | 124 ft | 9 kts | 334° |
| 2026-05-06 15:28 | 51.28080 | 6.75472 | 125 ft | 10 kts | 4° |
| 2026-05-06 15:28 | 51.28129 | 6.75545 | 125 ft | 10 kts | 51° |
| 2026-05-06 15:28 | 51.28189 | 6.75676 | 125 ft | 36 kts | 53° |
| 2026-05-06 15:28 | 51.28501 | 6.76326 | 128 ft | 107 kts | 53° |
| 2026-05-06 15:29 | 51.29079 | 6.77479 | 235 ft | 149 kts | 50° |
| 2026-05-06 15:29 | 51.29696 | 6.78789 | 991 ft | 147 kts | 49° |
| 2026-05-06 15:29 | 51.30326 | 6.80109 | 1655 ft | 157 kts | 49° |
| 2026-05-06 15:29 | 51.31048 | 6.81570 | 2064 ft | 177 kts | 49° |
| 2026-05-06 15:30 | 51.31850 | 6.83180 | 2507 ft | 196 kts | 49° |
| 2026-05-06 15:30 | 51.32727 | 6.85020 | 2965 ft | 219 kts | 51° |
| 2026-05-06 15:30 | 51.33676 | 6.87079 | 3488 ft | 242 kts | 52° |
| 2026-05-06 15:30 | 51.34694 | 6.89359 | 4176 ft | 257 kts | 55° |
| 2026-05-06 15:31 | 51.35309 | 6.92063 | 5078 ft | 268 kts | 84° |
| 2026-05-06 15:31 | 51.35037 | 6.95054 | 5975 ft | 276 kts | 103° |
| 2026-05-06 15:31 | 51.34642 | 6.98073 | 6896 ft | 279 kts | 98° |
| 2026-05-06 15:32 | 51.34049 | 7.04275 | 8710 ft | 286 kts | 96° |
| 2026-05-06 15:32 | 51.33764 | 7.07442 | 9635 ft | 290 kts | 97° |
| 2026-05-06 15:32 | 51.33463 | 7.10686 | 10254 ft | 304 kts | 98° |
| 2026-05-06 15:32 | 51.33019 | 7.14072 | 10539 ft | 328 kts | 107° |
| 2026-05-06 15:33 | 51.32117 | 7.17559 | 10794 ft | 351 kts | 118° |
| 2026-05-06 15:33 | 51.30717 | 7.20825 | 11348 ft | 360 kts | 133° |
| 2026-05-06 15:33 | 51.28964 | 7.23702 | 12108 ft | 363 kts | 138° |
| 2026-05-06 15:33 | 51.27157 | 7.26553 | 12862 ft | 368 kts | 138° |
| 2026-05-06 15:34 | 51.25326 | 7.29444 | 13588 ft | 373 kts | 138° |
| 2026-05-06 15:34 | 51.23467 | 7.32376 | 14243 ft | 377 kts | 138° |
| 2026-05-06 15:34 | 51.21591 | 7.35341 | 14907 ft | 381 kts | 138° |
| 2026-05-06 15:34 | 51.19700 | 7.38333 | 15579 ft | 384 kts | 137° |
| 2026-05-06 15:35 | 51.17794 | 7.41343 | 16210 ft | 388 kts | 137° |
| 2026-05-06 15:35 | 51.15867 | 7.44373 | 16847 ft | 391 kts | 137° |
| 2026-05-06 15:35 | 51.13912 | 7.47416 | 17475 ft | 394 kts | 137° |
| 2026-05-06 15:35 | 51.11928 | 7.50454 | 18091 ft | 398 kts | 138° |
| 2026-05-06 15:36 | 51.09916 | 7.53514 | 18636 ft | 401 kts | 138° |
| 2026-05-06 15:36 | 51.07892 | 7.56584 | 19204 ft | 403 kts | 138° |
| 2026-05-06 15:36 | 51.05854 | 7.59672 | 19756 ft | 406 kts | 139° |
| 2026-05-06 15:36 | 51.03806 | 7.62784 | 20298 ft | 409 kts | 139° |
| 2026-05-06 15:37 | 51.01747 | 7.65917 | 20815 ft | 412 kts | 139° |
| 2026-05-06 15:37 | 50.99674 | 7.69067 | 21322 ft | 415 kts | 139° |
| 2026-05-06 15:37 | 50.97575 | 7.72233 | 21847 ft | 417 kts | 141° |
| 2026-05-06 15:37 | 50.95270 | 7.75026 | 22332 ft | 417 kts | 150° |
| 2026-05-06 15:38 | 50.92806 | 7.77450 | 22807 ft | 419 kts | 151° |
| 2026-05-06 15:38 | 50.90314 | 7.79894 | 23276 ft | 422 kts | 151° |
| 2026-05-06 15:38 | 50.87811 | 7.82355 | 23667 ft | 425 kts | 151° |
| 2026-05-06 15:38 | 50.85296 | 7.84832 | 24063 ft | 427 kts | 151° |
| 2026-05-06 15:39 | 50.82763 | 7.87325 | 24476 ft | 429 kts | 151° |
| 2026-05-06 15:39 | 50.80220 | 7.89824 | 24877 ft | 431 kts | 151° |
| 2026-05-06 15:39 | 50.77669 | 7.92326 | 25270 ft | 433 kts | 151° |
| 2026-05-06 15:39 | 50.75101 | 7.94839 | 25674 ft | 435 kts | 151° |
| 2026-05-06 15:40 | 50.72522 | 7.97354 | 26060 ft | 437 kts | 152° |
| 2026-05-06 15:40 | 50.69966 | 7.99843 | 26457 ft | 438 kts | 152° |
| 2026-05-06 15:40 | 50.67373 | 8.02362 | 26851 ft | 439 kts | 152° |
| 2026-05-06 15:40 | 50.64769 | 8.04892 | 27222 ft | 441 kts | 152° |
| 2026-05-06 15:41 | 50.62094 | 8.07225 | 27555 ft | 439 kts | 159° |
| 2026-05-06 15:41 | 50.59243 | 8.08882 | 27898 ft | 436 kts | 167° |
| 2026-05-06 15:41 | 50.56275 | 8.09824 | 28264 ft | 434 kts | 175° |
| 2026-05-06 15:41 | 50.53265 | 8.10243 | 28609 ft | 435 kts | 177° |
| 2026-05-06 15:42 | 50.50242 | 8.10639 | 28951 ft | 436 kts | 177° |
| 2026-05-06 15:42 | 50.47218 | 8.11038 | 29332 ft | 436 kts | 177° |
| 2026-05-06 15:42 | 50.44199 | 8.11437 | 29832 ft | 434 kts | 177° |
| 2026-05-06 15:42 | 50.41199 | 8.11831 | 30261 ft | 432 kts | 177° |
| 2026-05-06 15:43 | 50.38207 | 8.12220 | 30643 ft | 431 kts | 177° |
| 2026-05-06 15:43 | 50.35216 | 8.12609 | 30991 ft | 430 kts | 176° |
| 2026-05-06 15:43 | 50.32240 | 8.12999 | 31358 ft | 429 kts | 176° |
| 2026-05-06 15:43 | 50.29262 | 8.13386 | 31702 ft | 429 kts | 176° |
| 2026-05-06 15:44 | 50.26287 | 8.13767 | 32048 ft | 429 kts | 177° |
| 2026-05-06 15:44 | 50.23313 | 8.14149 | 32401 ft | 429 kts | 177° |
| 2026-05-06 15:44 | 50.20342 | 8.14532 | 32746 ft | 428 kts | 177° |
| 2026-05-06 15:44 | 50.17363 | 8.14924 | 33080 ft | 429 kts | 175° |
| 2026-05-06 15:45 | 50.14432 | 8.15769 | 33404 ft | 431 kts | 166° |
| 2026-05-06 15:45 | 50.11606 | 8.17378 | 33727 ft | 434 kts | 157° |
| 2026-05-06 15:45 | 50.08962 | 8.19680 | 33997 ft | 437 kts | 151° |
| 2026-05-06 15:45 | 50.06361 | 8.22128 | 34249 ft | 437 kts | 152° |
| 2026-05-06 15:46 | 50.03750 | 8.24555 | 34519 ft | 437 kts | 152° |
| 2026-05-06 15:46 | 50.01138 | 8.26965 | 34867 ft | 436 kts | 153° |
| 2026-05-06 15:46 | 49.98522 | 8.29367 | 35214 ft | 436 kts | 153° |
| 2026-05-06 15:46 | 49.95911 | 8.31757 | 35523 ft | 436 kts | 152° |
| 2026-05-06 15:47 | 49.93294 | 8.34153 | 35834 ft | 436 kts | 153° |
| 2026-05-06 15:47 | 49.90718 | 8.36514 | 36132 ft | 437 kts | 152° |
| 2026-05-06 15:47 | 49.88101 | 8.38909 | 36421 ft | 437 kts | 152° |
| 2026-05-06 15:47 | 49.85507 | 8.41380 | 36654 ft | 439 kts | 148° |
| 2026-05-06 15:48 | 49.83137 | 8.44393 | 36777 ft | 444 kts | 140° |
| 2026-05-06 15:48 | 49.80892 | 8.47696 | 36788 ft | 445 kts | 140° |
| 2026-05-06 15:48 | 49.76392 | 8.54282 | 36784 ft | 445 kts | 140° |
| 2026-05-06 15:49 | 49.71441 | 8.59848 | 36794 ft | 437 kts | 157° |
| 2026-05-06 15:49 | 49.65701 | 8.62594 | 36783 ft | 431 kts | 172° |
| 2026-05-06 15:50 | 49.59781 | 8.64221 | 36786 ft | 432 kts | 172° |
| 2026-05-06 15:50 | 49.53867 | 8.65875 | 36784 ft | 432 kts | 172° |
| 2026-05-06 15:51 | 49.47949 | 8.67535 | 36785 ft | 433 kts | 170° |
| 2026-05-06 15:51 | 49.42241 | 8.70603 | 36786 ft | 436 kts | 160° |
| 2026-05-06 15:52 | 49.36625 | 8.74144 | 36780 ft | 437 kts | 160° |
| 2026-05-06 15:52 | 49.31036 | 8.77655 | 36780 ft | 437 kts | 160° |
| 2026-05-06 15:53 | 49.25394 | 8.81191 | 36790 ft | 438 kts | 161° |
| 2026-05-06 15:53 | 49.19753 | 8.84717 | 36802 ft | 438 kts | 160° |
| 2026-05-06 15:54 | 49.14106 | 8.88237 | 36797 ft | 438 kts | 161° |
| 2026-05-06 15:54 | 49.08474 | 8.91737 | 36813 ft | 437 kts | 161° |
| 2026-05-06 15:55 | 49.02846 | 8.95224 | 36818 ft | 436 kts | 161° |
| 2026-05-06 15:55 | 48.97234 | 8.98692 | 36827 ft | 435 kts | 161° |
| 2026-05-06 15:56 | 48.91625 | 9.02158 | 36832 ft | 435 kts | 161° |
| 2026-05-06 15:56 | 48.86053 | 9.05584 | 36845 ft | 435 kts | 161° |
| 2026-05-06 15:57 | 48.80453 | 9.09020 | 36853 ft | 434 kts | 161° |
| 2026-05-06 15:57 | 48.74854 | 9.12450 | 36857 ft | 434 kts | 162° |
| 2026-05-06 15:58 | 48.69252 | 9.15864 | 36847 ft | 434 kts | 161° |
| 2026-05-06 15:58 | 48.63650 | 9.19277 | 36837 ft | 434 kts | 161° |
| 2026-05-06 15:59 | 48.58040 | 9.22690 | 36852 ft | 434 kts | 161° |
| 2026-05-06 15:59 | 48.52436 | 9.26096 | 36852 ft | 434 kts | 161° |
| 2026-05-06 16:00 | 48.46835 | 9.29487 | 36849 ft | 434 kts | 161° |
| 2026-05-06 16:00 | 48.41246 | 9.32867 | 36856 ft | 433 kts | 162° |
| 2026-05-06 16:01 | 48.35654 | 9.36234 | 36852 ft | 433 kts | 161° |
| 2026-05-06 16:01 | 48.30056 | 9.39597 | 36848 ft | 432 kts | 162° |
| 2026-05-06 16:02 | 48.24508 | 9.42915 | 36827 ft | 433 kts | 162° |
| 2026-05-06 16:02 | 48.18902 | 9.46269 | 36796 ft | 434 kts | 162° |
| 2026-05-06 16:03 | 48.13287 | 9.49623 | 36820 ft | 434 kts | 162° |
| 2026-05-06 16:03 | 48.07671 | 9.52972 | 36837 ft | 435 kts | 162° |
| 2026-05-06 16:04 | 48.02085 | 9.56496 | 36833 ft | 439 kts | 155° |
| 2026-05-06 16:04 | 47.97863 | 9.60778 | 36839 ft | 444 kts | 148° |
| 2026-05-06 16:05 | 47.92857 | 9.66199 | 36840 ft | 445 kts | 148° |
| 2026-05-06 16:05 | 47.87838 | 9.71603 | 36845 ft | 445 kts | 148° |
| 2026-05-06 16:06 | 47.82817 | 9.77001 | 36828 ft | 445 kts | 149° |
| 2026-05-06 16:06 | 47.77804 | 9.82385 | 36884 ft | 444 kts | 149° |
| 2026-05-06 16:07 | 47.72801 | 9.87742 | 36892 ft | 443 kts | 149° |
| 2026-05-06 16:07 | 47.67805 | 9.93071 | 36895 ft | 442 kts | 149° |
| 2026-05-06 16:08 | 47.62819 | 9.98387 | 36898 ft | 441 kts | 149° |
| 2026-05-06 16:08 | 47.57834 | 10.03689 | 36899 ft | 441 kts | 149° |
| 2026-05-06 16:09 | 47.52854 | 10.08977 | 36863 ft | 441 kts | 150° |
| 2026-05-06 16:09 | 47.47870 | 10.14250 | 36881 ft | 441 kts | 150° |
| 2026-05-06 16:10 | 47.42863 | 10.19483 | 36890 ft | 440 kts | 151° |
| 2026-05-06 16:10 | 47.37712 | 10.24311 | 36888 ft | 438 kts | 154° |
| 2026-05-06 16:11 | 47.32482 | 10.28916 | 36889 ft | 438 kts | 155° |
| 2026-05-06 16:11 | 47.27264 | 10.33536 | 36870 ft | 438 kts | 154° |
| 2026-05-06 16:12 | 47.22063 | 10.38203 | 36844 ft | 438 kts | 154° |
| 2026-05-06 16:12 | 47.16871 | 10.42871 | 36874 ft | 438 kts | 154° |
| 2026-05-06 16:13 | 47.11666 | 10.47545 | 36842 ft | 438 kts | 155° |
| 2026-05-06 16:13 | 47.06456 | 10.52128 | 36856 ft | 434 kts | 159° |
| 2026-05-06 16:14 | 47.00898 | 10.55070 | 36836 ft | 426 kts | 168° |
| 2026-05-06 16:14 | 46.95226 | 10.57617 | 36848 ft | 427 kts | 168° |
| 2026-05-06 16:15 | 46.89559 | 10.60186 | 36845 ft | 427 kts | 168° |
| 2026-05-06 16:15 | 46.83880 | 10.62742 | 36845 ft | 427 kts | 169° |
| 2026-05-06 16:16 | 46.78201 | 10.65291 | 36842 ft | 427 kts | 169° |
| 2026-05-06 16:16 | 46.72518 | 10.67836 | 36868 ft | 427 kts | 169° |
| 2026-05-06 16:17 | 46.66781 | 10.69972 | 36858 ft | 425 kts | 173° |
| 2026-05-06 16:17 | 46.61051 | 10.71725 | 36878 ft | 424 kts | 174° |
| 2026-05-06 16:18 | 46.55278 | 10.73489 | 36873 ft | 424 kts | 174° |
| 2026-05-06 16:18 | 46.49495 | 10.75342 | 36699 ft | 426 kts | 173° |
| 2026-05-06 16:19 | 46.46613 | 10.76282 | 36437 ft | 424 kts | 173° |
| 2026-05-06 16:19 | 46.43749 | 10.77222 | 36181 ft | 421 kts | 173° |
| 2026-05-06 16:19 | 46.40904 | 10.78161 | 35919 ft | 418 kts | 174° |
| 2026-05-06 16:19 | 46.38070 | 10.79092 | 35699 ft | 416 kts | 174° |
| 2026-05-06 16:20 | 46.35252 | 10.80013 | 35456 ft | 415 kts | 174° |
| 2026-05-06 16:20 | 46.32441 | 10.80923 | 35212 ft | 413 kts | 174° |
| 2026-05-06 16:20 | 46.29645 | 10.81825 | 34970 ft | 411 kts | 175° |
| 2026-05-06 16:20 | 46.26856 | 10.82719 | 34730 ft | 410 kts | 175° |
| 2026-05-06 16:21 | 46.24077 | 10.83610 | 34455 ft | 408 kts | 175° |
| 2026-05-06 16:21 | 46.21304 | 10.84498 | 34215 ft | 408 kts | 175° |
| 2026-05-06 16:21 | 46.18532 | 10.85386 | 33969 ft | 407 kts | 175° |
| 2026-05-06 16:21 | 46.15770 | 10.86273 | 33700 ft | 406 kts | 175° |
| 2026-05-06 16:22 | 46.13011 | 10.87158 | 33425 ft | 407 kts | 175° |
| 2026-05-06 16:22 | 46.10279 | 10.88034 | 33150 ft | 407 kts | 175° |
| 2026-05-06 16:22 | 46.07512 | 10.88924 | 32872 ft | 408 kts | 175° |
| 2026-05-06 16:22 | 46.04737 | 10.89817 | 32242 ft | 409 kts | 175° |
| 2026-05-06 16:23 | 46.01939 | 10.90713 | 31117 ft | 416 kts | 175° |
| 2026-05-06 16:23 | 45.99095 | 10.91620 | 30070 ft | 420 kts | 175° |
| 2026-05-06 16:23 | 45.96230 | 10.92530 | 28798 ft | 425 kts | 175° |
| 2026-05-06 16:23 | 45.93328 | 10.93453 | 27595 ft | 429 kts | 174° |
| 2026-05-06 16:24 | 45.90393 | 10.94389 | 26424 ft | 433 kts | 174° |
| 2026-05-06 16:24 | 45.87464 | 10.95331 | 25631 ft | 429 kts | 173° |
| 2026-05-06 16:24 | 45.84577 | 10.96264 | 25095 ft | 421 kts | 173° |
| 2026-05-06 16:24 | 45.81736 | 10.97176 | 24896 ft | 417 kts | 173° |
| 2026-05-06 16:25 | 45.78905 | 10.98080 | 24892 ft | 417 kts | 173° |
| 2026-05-06 16:25 | 45.76069 | 10.98979 | 24894 ft | 417 kts | 174° |
| 2026-05-06 16:25 | 45.73235 | 10.99870 | 24896 ft | 417 kts | 174° |
| 2026-05-06 16:25 | 45.70401 | 11.00759 | 24890 ft | 417 kts | 174° |
| 2026-05-06 16:26 | 45.67595 | 11.01869 | 24645 ft | 423 kts | 166° |
| 2026-05-06 16:26 | 45.64949 | 11.03794 | 23331 ft | 439 kts | 151° |
| 2026-05-06 16:26 | 45.62685 | 11.06807 | 22039 ft | 448 kts | 135° |
| 2026-05-06 16:26 | 45.60952 | 11.10470 | 20948 ft | 441 kts | 127° |
| 2026-05-06 16:27 | 45.59348 | 11.14147 | 19895 ft | 432 kts | 128° |
| 2026-05-06 16:27 | 45.57746 | 11.17735 | 18888 ft | 428 kts | 128° |
| 2026-05-06 16:27 | 45.56114 | 11.21323 | 17863 ft | 433 kts | 128° |
| 2026-05-06 16:27 | 45.54456 | 11.24932 | 16746 ft | 438 kts | 128° |
| 2026-05-06 16:28 | 45.52793 | 11.28561 | 15661 ft | 430 kts | 127° |
| 2026-05-06 16:28 | 45.51204 | 11.32066 | 14714 ft | 413 kts | 127° |
| 2026-05-06 16:28 | 45.49681 | 11.35447 | 13806 ft | 397 kts | 127° |
| 2026-05-06 16:28 | 45.48218 | 11.38701 | 12810 ft | 384 kts | 127° |
| 2026-05-06 16:29 | 45.46795 | 11.41856 | 11838 ft | 373 kts | 127° |
| 2026-05-06 16:29 | 45.45408 | 11.44907 | 11176 ft | 356 kts | 127° |
| 2026-05-06 16:29 | 45.44114 | 11.47760 | 10943 ft | 331 kts | 127° |
| 2026-05-06 16:29 | 45.42875 | 11.50464 | 10859 ft | 322 kts | 130° |
| 2026-05-06 16:30 | 45.41448 | 11.52870 | 10870 ft | 317 kts | 136° |
| 2026-05-06 16:30 | 45.40467 | 11.54409 | 10882 ft | 318 kts | 137° |
| 2026-05-06 16:30 | 45.38483 | 11.57539 | 10879 ft | 318 kts | 136° |
| 2026-05-06 16:30 | 45.37023 | 11.59850 | 10879 ft | 318 kts | 136° |
| 2026-05-06 16:31 | 45.35672 | 11.62355 | 10867 ft | 323 kts | 124° |
| 2026-05-06 16:31 | 45.34786 | 11.65306 | 10872 ft | 329 kts | 109° |
| 2026-05-06 16:31 | 45.34462 | 11.68551 | 10865 ft | 335 kts | 93° |
| 2026-05-06 16:31 | 45.34579 | 11.71874 | 10566 ft | 337 kts | 89° |
| 2026-05-06 16:32 | 45.34734 | 11.75181 | 10251 ft | 335 kts | 89° |
| 2026-05-06 16:32 | 45.34893 | 11.78458 | 10034 ft | 327 kts | 89° |
| 2026-05-06 16:32 | 45.34848 | 11.81605 | 9879 ft | 312 kts | 103° |
| 2026-05-06 16:32 | 45.34248 | 11.84497 | 9608 ft | 302 kts | 119° |
| 2026-05-06 16:33 | 45.33158 | 11.87006 | 9157 ft | 295 kts | 135° |
| 2026-05-06 16:33 | 45.31797 | 11.89105 | 9017 ft | 281 kts | 142° |
| 2026-05-06 16:33 | 45.30190 | 11.90408 | 8888 ft | 257 kts | 171° |
| 2026-05-06 16:34 | 45.27006 | 11.89366 | 8875 ft | 238 kts | 221° |
| 2026-05-06 16:34 | 45.25762 | 11.87804 | 8874 ft | 239 kts | 222° |
| 2026-05-06 16:34 | 45.24520 | 11.86238 | 8835 ft | 238 kts | 222° |
| 2026-05-06 16:34 | 45.23284 | 11.84683 | 8489 ft | 237 kts | 222° |
| 2026-05-06 16:35 | 45.22057 | 11.83144 | 8281 ft | 235 kts | 222° |
| 2026-05-06 16:35 | 45.20824 | 11.81603 | 8156 ft | 237 kts | 222° |
| 2026-05-06 16:35 | 45.19588 | 11.80056 | 8023 ft | 237 kts | 222° |
| 2026-05-06 16:35 | 45.18356 | 11.78509 | 7904 ft | 237 kts | 222° |
| 2026-05-06 16:36 | 45.17140 | 11.76981 | 7777 ft | 236 kts | 222° |
| 2026-05-06 16:36 | 45.15893 | 11.75417 | 7647 ft | 236 kts | 222° |
| 2026-05-06 16:36 | 45.14598 | 11.74117 | 7506 ft | 228 kts | 205° |
| 2026-05-06 16:36 | 45.13083 | 11.73678 | 7395 ft | 222 kts | 181° |
| 2026-05-06 16:37 | 45.11604 | 11.74220 | 7274 ft | 223 kts | 156° |
| 2026-05-06 16:37 | 45.10414 | 11.75663 | 7087 ft | 232 kts | 129° |
| 2026-05-06 16:37 | 45.09827 | 11.77788 | 6970 ft | 238 kts | 99° |
| 2026-05-06 16:37 | 45.10070 | 11.80120 | 6925 ft | 246 kts | 65° |
| 2026-05-06 16:38 | 45.11133 | 11.82004 | 6870 ft | 248 kts | 39° |
| 2026-05-06 16:38 | 45.12407 | 11.83653 | 6813 ft | 249 kts | 44° |
| 2026-05-06 16:38 | 45.13617 | 11.85400 | 6759 ft | 248 kts | 46° |
| 2026-05-06 16:38 | 45.14808 | 11.87177 | 6705 ft | 248 kts | 46° |
| 2026-05-06 16:39 | 45.15995 | 11.88951 | 6660 ft | 248 kts | 46° |
| 2026-05-06 16:39 | 45.17188 | 11.90720 | 6600 ft | 248 kts | 46° |
| 2026-05-06 16:39 | 45.18389 | 11.92483 | 6547 ft | 248 kts | 45° |
| 2026-05-06 16:39 | 45.19591 | 11.94239 | 6497 ft | 248 kts | 45° |
| 2026-05-06 16:40 | 45.20792 | 11.95986 | 6442 ft | 247 kts | 45° |
| 2026-05-06 16:40 | 45.21992 | 11.97729 | 6386 ft | 247 kts | 45° |
| 2026-05-06 16:40 | 45.23060 | 11.99631 | 6341 ft | 247 kts | 58° |
| 2026-05-06 16:40 | 45.24132 | 12.01523 | 6286 ft | 247 kts | 44° |
| 2026-05-06 16:41 | 45.25409 | 12.03165 | 6178 ft | 248 kts | 40° |
| 2026-05-06 16:41 | 45.26699 | 12.04768 | 5889 ft | 246 kts | 40° |
| 2026-05-06 16:41 | 45.27977 | 12.06383 | 5571 ft | 246 kts | 41° |
| 2026-05-06 16:41 | 45.29253 | 12.08005 | 5245 ft | 247 kts | 41° |
| 2026-05-06 16:42 | 45.30538 | 12.09641 | 4920 ft | 250 kts | 41° |
| 2026-05-06 16:42 | 45.31840 | 12.11298 | 4583 ft | 253 kts | 41° |
| 2026-05-06 16:42 | 45.33139 | 12.12953 | 4245 ft | 256 kts | 41° |
| 2026-05-06 16:42 | 45.34479 | 12.14661 | 3895 ft | 257 kts | 42° |
| 2026-05-06 16:43 | 45.35812 | 12.16361 | 3557 ft | 257 kts | 41° |
| 2026-05-06 16:43 | 45.37123 | 12.18033 | 3215 ft | 248 kts | 43° |
| 2026-05-06 16:43 | 45.38376 | 12.19632 | 2911 ft | 234 kts | 43° |
| 2026-05-06 16:43 | 45.39538 | 12.21117 | 2605 ft | 217 kts | 44° |
| 2026-05-06 16:44 | 45.40621 | 12.22501 | 2359 ft | 198 kts | 44° |
| 2026-05-06 16:44 | 45.41593 | 12.23744 | 2113 ft | 177 kts | 44° |
| 2026-05-06 16:44 | 45.42458 | 12.24851 | 1873 ft | 161 kts | 45° |
| 2026-05-06 16:44 | 45.43251 | 12.25865 | 1660 ft | 152 kts | 46° |
| 2026-05-06 16:45 | 45.44025 | 12.26858 | 1452 ft | 147 kts | 44° |
| 2026-05-06 16:45 | 45.44781 | 12.27827 | 1269 ft | 145 kts | 43° |
| 2026-05-06 16:45 | 45.45522 | 12.28778 | 1082 ft | 144 kts | 44° |
| 2026-05-06 16:45 | 45.46263 | 12.29729 | 882 ft | 141 kts | 43° |
| 2026-05-06 16:46 | 45.46999 | 12.30673 | 689 ft | 143 kts | 44° |
| 2026-05-06 16:46 | 45.47736 | 12.31604 | 508 ft | 140 kts | 44° |
| 2026-05-06 16:46 | 45.48457 | 12.32532 | 334 ft | 139 kts | 45° |
| 2026-05-06 16:46 | 45.49171 | 12.33455 | 138 ft | 139 kts | 44° |
| 2026-05-06 16:47 | 45.49874 | 12.34367 | 13 ft | 127 kts | 43° |
| 2026-05-06 16:47 | 45.50408 | 12.35050 | 13 ft | 78 kts | 41° |
| 2026-05-06 16:47 | 45.50735 | 12.35401 | 16 ft | 51 kts | 18° |
| 2026-05-06 16:47 | 45.50914 | 12.35445 | 18 ft | 7 kts | 349° |
| 2026-05-06 16:48 | 45.50916 | 12.35444 | 18 ft | 0 kts | 347° |
| 2026-05-06 16:48 | 45.50939 | 12.35425 | 17 ft | 7 kts | 309° |
| 2026-05-06 16:48 | 45.50931 | 12.35374 | 17 ft | 5 kts | 229° |
| 2026-05-06 16:48 | 45.50906 | 12.35341 | 17 ft | 5 kts | 222° |
| 2026-05-06 16:49 | 45.50864 | 12.35288 | 17 ft | 12 kts | 223° |
| 2026-05-06 16:49 | 45.50796 | 12.35199 | 17 ft | 14 kts | 221° |
| 2026-05-06 16:49 | 45.50716 | 12.35099 | 16 ft | 17 kts | 221° |
| 2026-05-06 16:49 | 45.50638 | 12.35002 | 14 ft | 12 kts | 223° |
| 2026-05-06 16:50 | 45.50611 | 12.34890 | 15 ft | 11 kts | 270° |
| 2026-05-06 16:50 | 45.50611 | 12.34801 | 15 ft | 8 kts | 269° |
| 2026-05-06 16:50 | 45.50608 | 12.34728 | 16 ft | 7 kts | 265° |
| 2026-05-06 16:50 | 45.50606 | 12.34684 | 16 ft | 6 kts | 265° |
| 2026-05-06 16:51 | 45.50602 | 12.34607 | 16 ft | 5 kts | 267° |
| 2026-05-06 16:51 | 45.50601 | 12.34555 | 16 ft | 8 kts | 268° |
| 2026-05-06 16:51 | 45.50595 | 12.34443 | 16 ft | 9 kts | 268° |
| 2026-05-06 16:51 | 45.50612 | 12.34363 | 16 ft | 8 kts | 295° |
| 2026-05-06 16:52 | 45.50618 | 12.34292 | 16 ft | 7 kts | 265° |
| 2026-05-06 16:52 | 45.50617 | 12.34245 | 16 ft | 4 kts | 268° |
| 2026-05-06 16:52 | 45.50616 | 12.34215 | 16 ft | 0 kts | 267° |